| time (UTC) | temp C | wind direction | speed KPH | gust KPH | rain 1hr cm | rain 24hr cm | rain mn cm | humidity % | barometer mb |
| 20260510092901 | 29 | 0 | 14.5 | 0.0 | 0.00 | 0.00 | 0.00 | 87 | 1009.0 |
| 20260510085901 | 30 | 0 | 14.5 | 0.0 | 0.00 | 0.00 | 0.00 | 84 | 1009.0 |
| 20260510083723 | 30 | 0 | 14.5 | 0.0 | 0.00 | 0.00 | 0.00 | 85 | 1009.0 |
| 20260510080723 | 30 | 344 | 19.3 | 0.0 | 0.00 | 0.00 | 0.00 | 90 | 1008.0 |
| 20260510073723 | 31 | 344 | 19.3 | 0.0 | 0.00 | 0.00 | 0.00 | 81 | 1008.0 |
| 20260510070724 | 30 | 330 | 20.9 | 0.0 | 0.00 | 0.00 | 0.00 | 79 | 1008.0 |
| 20260510063724 | 31 | 330 | 20.9 | 0.0 | 0.00 | 0.00 | 0.00 | 73 | 1008.0 |
| 20260510060723 | 31 | 332 | 20.9 | 0.0 | 0.00 | 0.00 | 0.00 | 73 | 1009.0 |
| 20260510053723 | 31 | 329 | 20.9 | 0.0 | 0.00 | 0.00 | 0.00 | 73 | 1009.0 |
| 20260510050723 | 31 | 345 | 17.7 | 0.0 | 0.00 | 0.00 | 0.00 | 78 | 1009.0 |
| 20260510043724 | 32 | 345 | 17.7 | 0.0 | 0.00 | 0.00 | 0.00 | 71 | 1009.0 |
| 20260510040723 | 31 | 8 | 12.9 | 0.0 | 0.00 | 0.00 | 0.00 | 82 | 1010.0 |
| 20260510033723 | 31 | 8 | 12.9 | 0.0 | 0.00 | 0.00 | 0.00 | 72 | 1010.0 |
| 20260510030724 | 30 | 34 | 9.7 | 0.0 | 0.00 | 0.00 | 0.00 | 84 | 1011.0 |
| 20260510023723 | 30 | 34 | 9.7 | 0.0 | 0.00 | 0.00 | 0.00 | 78 | 1011.0 |
| 20260510020723 | 28 | 56 | 9.7 | 0.0 | 0.00 | 0.00 | 0.00 | 89 | 1012.0 |
| 20260510013723 | 28 | 56 | 9.7 | 0.0 | 0.00 | 0.00 | 0.00 | 84 | 1012.0 |
| 20260510010723 | 27 | 96 | 8.0 | 0.0 | 0.00 | 0.00 | 0.00 | 91 | 1012.0 |
| 20260510003724 | 28 | 96 | 8.0 | 0.0 | 0.00 | 0.00 | 0.00 | 83 | 1011.0 |
| 20260510000723 | 27 | 134 | 8.0 | 0.0 | 0.00 | 0.00 | 0.00 | 90 | 1011.0 |
| 20260509233723 | 27 | 134 | 8.0 | 0.0 | 0.00 | 0.00 | 0.00 | 90 | 1011.0 |
| 20260509230723 | 26 | 142 | 9.7 | 0.0 | 0.00 | 0.00 | 0.00 | 90 | 1011.0 |
| 20260509223723 | 26 | 142 | 9.7 | 0.0 | 0.00 | 0.00 | 0.00 | 92 | 1011.0 |
| 20260509220723 | 25 | 146 | 11.3 | 0.0 | 0.00 | 0.00 | 0.00 | 91 | 1011.0 |
| 20260509213723 | 26 | 146 | 11.3 | 0.0 | 0.00 | 0.00 | 0.00 | 92 | 1011.0 |
| 20260509210723 | 26 | 147 | 12.9 | 0.0 | 0.00 | 0.00 | 0.00 | 90 | 1010.0 |
| 20260509203723 | 27 | 147 | 12.9 | 0.0 | 0.00 | 0.00 | 0.00 | 93 | 1011.0 |
| 20260509200723 | 26 | 144 | 9.7 | 0.0 | 0.00 | 0.00 | 0.00 | 90 | 1011.0 |
| 20260509193723 | 26 | 144 | 9.7 | 0.0 | 0.00 | 0.00 | 0.00 | 92 | 1011.0 |
| 20260509190723 | 26 | 143 | 9.7 | 0.0 | 0.00 | 0.00 | 0.00 | 89 | 1011.0 |
| 20260509183723 | 27 | 143 | 9.7 | 0.0 | 0.00 | 0.00 | 0.00 | 90 | 1011.0 |
| 20260509180723 | 26 | 150 | 8.0 | 0.0 | 0.00 | 0.00 | 0.00 | 88 | 1012.0 |
| 20260509173724 | 26 | 151 | 8.0 | 0.0 | 0.00 | 0.00 | 0.00 | 88 | 1012.0 |
| 20260509170723 | 26 | 152 | 6.4 | 0.0 | 0.00 | 0.00 | 0.00 | 89 | 1012.0 |
| 20260509163723 | 27 | 152 | 6.4 | 0.0 | 0.00 | 0.00 | 0.00 | 90 | 1012.0 |
| 20260509160723 | 27 | 160 | 8.0 | 0.0 | 0.00 | 0.00 | 0.00 | 87 | 1013.0 |
| 20260509153723 | 27 | 160 | 8.0 | 0.0 | 0.00 | 0.00 | 0.00 | 92 | 1013.0 |
| 20260509150723 | 26 | 162 | 6.4 | 0.0 | 0.00 | 0.00 | 0.00 | 92 | 1013.0 |
| 20260509143723 | 27 | 162 | 6.4 | 0.0 | 0.00 | 0.00 | 0.00 | 93 | 1013.0 |
| 20260509140723 | 26 | 167 | 4.8 | 0.0 | 0.00 | 0.00 | 0.00 | 91 | 1013.0 |
| 20260509133723 | 27 | 167 | 4.8 | 0.0 | 0.00 | 0.00 | 0.00 | 91 | 1013.0 |
| 20260509130723 | 27 | 182 | 4.8 | 0.0 | 0.00 | 0.00 | 0.00 | 88 | 1013.0 |
| 20260509123723 | 28 | 182 | 4.8 | 0.0 | 0.00 | 0.00 | 0.00 | 91 | 1013.0 |
| 20260509120723 | 27 | 198 | 1.6 | 0.0 | 0.00 | 0.00 | 0.00 | 90 | 1012.0 |
| 20260509113723 | 27 | 270 | 0.0 | 0.0 | 0.00 | 0.00 | 0.00 | 90 | 1012.0 |
| 20260509110723 | 27 | 329 | 4.8 | 0.0 | 0.00 | 0.00 | 0.00 | 85 | 1011.0 |
| 20260509103723 | 27 | 329 | 4.8 | 0.0 | 0.00 | 0.00 | 0.00 | 87 | 1011.0 |
| 20260509100723 | 28 | 325 | 8.0 | 0.0 | 0.00 | 0.00 | 0.00 | 84 | 1010.0 |